createdAt,value
2016-03-17T00:00:20.618Z,0
2016-03-17T00:01:20.559Z,0
2016-03-17T00:02:20.546Z,0
2016-03-17T00:03:20.486Z,0
2016-03-17T00:04:20.458Z,0
2016-03-17T00:05:20.429Z,0
2016-03-17T00:06:20.400Z,0
2016-03-17T00:07:20.372Z,0
2016-03-17T00:08:20.202Z,0
2016-03-17T00:09:20.127Z,0
2016-03-17T00:10:20.270Z,0
2016-03-17T00:11:20.210Z,0
2016-03-17T00:12:20.197Z,0
2016-03-17T00:13:20.138Z,0
2016-03-17T00:14:20.156Z,0
2016-03-17T00:15:20.065Z,0
2016-03-17T00:16:20.068Z,0
2016-03-17T00:17:20.008Z,0
2016-03-17T00:18:19.995Z,0
2016-03-17T00:19:19.952Z,0
2016-03-17T00:20:19.938Z,0
2016-03-17T00:21:19.879Z,0
2016-03-17T00:22:19.882Z,0
2016-03-17T00:23:19.821Z,0
2016-03-17T00:24:19.793Z,0
2016-03-17T00:25:19.733Z,0
2016-03-17T00:26:19.751Z,0
2016-03-17T00:27:19.706Z,0
2016-03-17T00:28:19.662Z,0
2016-03-17T00:29:19.603Z,0
2016-03-17T00:30:19.590Z,0
2016-03-17T00:31:19.531Z,0
2016-03-17T00:32:19.392Z,0
2016-03-17T00:33:19.473Z,0
2016-03-17T00:34:19.491Z,0
2016-03-17T00:35:19.400Z,0
2016-03-17T00:36:19.387Z,0
2016-03-17T00:37:19.359Z,0
2016-03-17T00:38:19.300Z,0
2016-03-17T00:39:19.255Z,0
2016-03-17T00:40:19.242Z,0
2016-03-17T00:41:19.228Z,0
2016-03-17T00:42:19.169Z,0
2016-03-17T00:43:19.124Z,0
2016-03-17T00:44:19.096Z,0
2016-03-17T00:45:19.092Z,0
2016-03-17T00:46:19.047Z,0
2016-03-17T00:47:19.081Z,0
2016-03-17T00:48:18.975Z,0
2016-03-17T00:49:18.962Z,0
2016-03-17T00:50:18.903Z,0
2016-03-17T00:51:18.858Z,0
2016-03-17T00:52:18.830Z,0
2016-03-17T00:53:18.786Z,0
2016-03-17T00:54:18.757Z,0
2016-03-17T00:55:18.744Z,0
2016-03-17T00:56:18.716Z,0
2016-03-17T00:57:18.672Z,0
2016-03-17T00:58:18.611Z,0
2016-03-17T00:59:18.567Z,0
2016-03-17T01:00:18.555Z,0
2016-03-17T01:01:18.526Z,0
2016-03-17T01:02:18.747Z,0
2016-03-17T01:03:18.469Z,0
2016-03-17T01:04:18.424Z,0
2016-03-17T01:05:18.412Z,0
2016-03-17T01:06:18.399Z,0
2016-03-17T01:07:18.724Z,0
2016-03-17T01:08:18.290Z,0
2016-03-17T01:09:18.277Z,0
2016-03-17T01:10:18.217Z,0
2016-03-17T01:11:18.173Z,0
2016-03-17T01:12:18.160Z,0
2016-03-17T01:13:18.132Z,0
2016-03-17T01:14:18.103Z,0
2016-03-17T01:15:18.074Z,0
2016-03-17T01:16:18.014Z,0
2016-03-17T01:17:17.596Z,0
2016-03-17T01:18:17.942Z,0
2016-03-17T01:19:17.929Z,0
2016-03-17T01:20:17.885Z,0
2016-03-17T01:21:17.856Z,0
2016-03-17T01:22:17.828Z,0
2016-03-17T01:23:17.767Z,0
2016-03-17T01:24:21.489Z,0
2016-03-17T01:25:24.867Z,0
2016-03-17T01:26:24.542Z,0
2016-03-17T01:27:24.466Z,0
2016-03-17T01:28:24.219Z,0
2016-03-17T01:29:24.237Z,0
2016-03-17T01:30:24.396Z,0
2016-03-17T01:31:24.414Z,0
2016-03-17T01:32:24.401Z,0
2016-03-17T01:33:24.325Z,0
2016-03-17T01:34:24.078Z,0
2016-03-17T01:35:24.440Z,0
2016-03-17T01:36:24.255Z,0
2016-03-17T01:37:22.618Z,0
2016-03-17T01:38:20.777Z,0
2016-03-17T01:39:23.452Z,0
2016-03-17T01:40:17.189Z,0
2016-03-17T01:41:17.144Z,0
2016-03-17T01:42:17.147Z,0
2016-03-17T01:43:17.103Z,0
2016-03-17T01:44:17.043Z,0
2016-03-17T01:45:17.015Z,0
2016-03-17T01:46:16.971Z,0
2016-03-17T01:47:17.004Z,0
2016-03-17T01:48:16.898Z,0
2016-03-17T01:49:16.868Z,0
2016-03-17T01:50:16.856Z,0
2016-03-17T01:51:16.828Z,0
2016-03-17T01:52:16.784Z,0
2016-03-17T01:53:16.724Z,0
2016-03-17T01:54:16.711Z,0
2016-03-17T01:55:16.667Z,0
2016-03-17T01:56:16.654Z,0
2016-03-17T01:57:16.594Z,0
2016-03-17T01:58:16.550Z,0
2016-03-17T01:59:16.520Z,0
2016-03-17T02:00:16.493Z,0
2016-03-17T02:01:16.448Z,0
2016-03-17T02:02:16.514Z,0
2016-03-17T02:03:16.391Z,0
2016-03-17T02:04:16.363Z,0
2016-03-17T02:05:16.318Z,0
2016-03-17T02:06:16.149Z,0
2016-03-17T02:07:16.246Z,0
2016-03-17T02:08:16.216Z,0
2016-03-17T02:09:16.157Z,0
2016-03-17T02:10:16.160Z,0
2016-03-17T02:11:16.116Z,0
2016-03-17T02:12:16.071Z,0
2016-03-17T02:13:16.044Z,0
2016-03-17T02:14:16.015Z,0
2016-03-17T02:15:15.955Z,0
2016-03-17T02:16:15.942Z,0
2016-03-17T02:17:15.913Z,0
2016-03-17T02:18:15.869Z,0
2016-03-17T02:19:15.824Z,0
2016-03-17T02:20:15.812Z,0
2016-03-17T02:21:15.768Z,0
2016-03-17T02:22:15.739Z,0
2016-03-17T02:23:15.696Z,0
2016-03-17T02:24:15.651Z,0
2016-03-17T02:25:15.623Z,0
2016-03-17T02:26:15.594Z,0
2016-03-17T02:27:15.565Z,0
2016-03-17T02:28:15.349Z,0
2016-03-17T02:29:15.476Z,0
2016-03-17T02:30:15.448Z,0
2016-03-17T02:31:15.404Z,0
2016-03-17T02:32:15.376Z,0
2016-03-17T02:33:15.347Z,0
2016-03-17T02:34:15.319Z,0
2016-03-17T02:35:15.274Z,0
2016-03-17T02:36:15.230Z,0
2016-03-17T02:37:15.202Z,0
2016-03-17T02:38:15.001Z,0
2016-03-17T02:39:15.129Z,0
2016-03-17T02:40:15.100Z,0
2016-03-17T02:41:15.072Z,0
2016-03-17T02:42:15.027Z,0
2016-03-17T02:43:14.983Z,0
2016-03-17T02:44:14.939Z,0
2016-03-17T02:45:14.910Z,0
2016-03-17T02:46:14.882Z,0
2016-03-17T02:47:14.932Z,0
2016-03-17T02:48:14.810Z,0
2016-03-17T02:49:14.780Z,0
2016-03-17T02:50:14.752Z,0
2016-03-17T02:51:14.708Z,0
2016-03-17T02:52:14.679Z,0
2016-03-17T02:53:14.636Z,0
2016-03-17T02:54:14.607Z,0
2016-03-17T02:55:14.594Z,0
2016-03-17T02:56:14.534Z,0
2016-03-17T02:57:14.490Z,0
2016-03-17T02:58:14.461Z,0
2016-03-17T02:59:14.433Z,0
2016-03-17T03:00:14.404Z,0
2016-03-17T03:01:14.375Z,0
2016-03-17T03:02:14.315Z,0
2016-03-17T03:03:14.287Z,0
2016-03-17T03:04:14.243Z,0
2016-03-17T03:05:14.215Z,0
2016-03-17T03:06:14.186Z,0
2016-03-17T03:07:14.126Z,0
2016-03-17T03:08:14.129Z,0
2016-03-17T03:09:14.085Z,0
2016-03-17T03:10:14.055Z,0
2016-03-17T03:11:14.011Z,0
2016-03-17T03:12:13.967Z,0
2016-03-17T03:13:13.939Z,0
2016-03-17T03:14:13.894Z,0
2016-03-17T03:15:13.866Z,0
2016-03-17T03:16:13.837Z,0
2016-03-17T03:17:13.793Z,0
2016-03-17T03:18:13.733Z,0
2016-03-17T03:19:13.721Z,0
2016-03-17T03:20:13.692Z,0
2016-03-17T03:21:13.648Z,0
2016-03-17T03:22:13.604Z,0
2016-03-17T03:23:13.591Z,0
2016-03-17T03:24:13.563Z,0
2016-03-17T03:25:13.503Z,0
2016-03-17T03:26:13.474Z,0
2016-03-17T03:27:13.430Z,0
2016-03-17T03:28:13.401Z,0
2016-03-17T03:29:13.373Z,0
2016-03-17T03:30:13.360Z,0
2016-03-17T03:31:13.300Z,0
2016-03-17T03:32:13.271Z,0
2016-03-17T03:33:13.227Z,0
2016-03-17T03:34:13.042Z,0
2016-03-17T03:35:13.154Z,0
2016-03-17T03:36:13.111Z,0
2016-03-17T03:37:13.082Z,0
2016-03-17T03:38:13.041Z,0
2016-03-17T03:39:12.984Z,0
2016-03-17T03:40:12.960Z,0
2016-03-17T03:41:12.887Z,0
2016-03-17T03:42:12.846Z,0
2016-03-17T03:43:12.798Z,0
2016-03-17T03:44:12.765Z,0
2016-03-17T03:45:12.732Z,0
2016-03-17T03:46:12.684Z,0
2016-03-17T03:47:12.666Z,0
2016-03-17T03:48:12.449Z,0
2016-03-17T03:49:12.575Z,0
2016-03-17T03:50:12.529Z,0
2016-03-17T03:51:12.499Z,0
2016-03-17T03:52:12.454Z,0
2016-03-17T03:53:12.441Z,0
2016-03-17T03:54:12.380Z,0
2016-03-17T03:55:12.350Z,0
2016-03-17T03:56:12.306Z,0
2016-03-17T03:57:12.291Z,0
2016-03-17T03:58:12.247Z,0
2016-03-17T03:59:12.063Z,0
2016-03-17T04:00:12.175Z,0
2016-03-17T04:01:12.146Z,0
2016-03-17T04:02:12.102Z,0
2016-03-17T04:03:12.073Z,0
2016-03-17T04:04:12.029Z,0
2016-03-17T04:05:12.000Z,0
2016-03-17T04:06:11.972Z,0
2016-03-17T04:07:11.928Z,0
2016-03-17T04:08:11.930Z,0
2016-03-17T04:09:11.870Z,0
2016-03-17T04:10:11.811Z,0
2016-03-17T04:11:11.782Z,0
2016-03-17T04:12:11.739Z,0
2016-03-17T04:13:11.725Z,0
2016-03-17T04:14:11.697Z,0
2016-03-17T04:15:11.653Z,0
2016-03-17T04:16:11.608Z,0
2016-03-17T04:17:11.564Z,0
2016-03-17T04:18:11.567Z,0
2016-03-17T04:19:11.507Z,0
2016-03-17T04:20:11.463Z,0
2016-03-17T04:21:11.418Z,0
2016-03-17T04:22:11.390Z,0
2016-03-17T04:23:11.361Z,0
2016-03-17T04:24:11.333Z,0
2016-03-17T04:25:11.305Z,0
2016-03-17T04:26:11.229Z,0
2016-03-17T04:27:11.200Z,0
2016-03-17T04:28:11.172Z,0
2016-03-17T04:29:11.175Z,0
2016-03-17T04:30:11.130Z,0
2016-03-17T04:31:11.086Z,0
2016-03-17T04:32:11.042Z,0
2016-03-17T04:33:11.013Z,0
2016-03-17T04:34:10.984Z,0
2016-03-17T04:35:10.971Z,0
2016-03-17T04:36:10.896Z,0
2016-03-17T04:37:10.867Z,0
2016-03-17T04:38:10.823Z,0
2016-03-17T04:39:10.795Z,0
2016-03-17T04:40:10.767Z,0
2016-03-17T04:41:10.738Z,0
2016-03-17T04:42:10.695Z,0
2016-03-17T04:43:10.650Z,0
2016-03-17T04:44:10.606Z,0
2016-03-17T04:45:10.592Z,0
2016-03-17T04:46:10.548Z,0
2016-03-17T04:47:10.520Z,0
2016-03-17T04:48:10.476Z,0
2016-03-17T04:49:10.447Z,0
2016-03-17T04:50:10.419Z,0
2016-03-17T04:51:10.374Z,0
2016-03-17T04:52:10.346Z,0
2016-03-17T04:53:10.285Z,0
2016-03-17T04:54:10.257Z,0
2016-03-17T04:55:10.229Z,0
2016-03-17T04:56:10.185Z,0
2016-03-17T04:57:10.187Z,0
2016-03-17T04:58:10.113Z,0
2016-03-17T04:59:10.083Z,0
2016-03-17T05:00:10.024Z,0
2016-03-17T05:01:10.026Z,0
2016-03-17T05:02:09.966Z,0
2016-03-17T05:03:09.938Z,0
2016-03-17T05:04:09.924Z,0
2016-03-17T05:05:09.881Z,0
2016-03-17T05:06:09.837Z,0
2016-03-17T05:07:09.792Z,0
2016-03-17T05:08:09.748Z,0
2016-03-17T05:09:09.719Z,0
2016-03-17T05:10:09.706Z,0
2016-03-17T05:11:09.662Z,0
2016-03-17T05:12:09.634Z,0
2016-03-17T05:13:09.574Z,0
2016-03-17T05:14:09.546Z,0
2016-03-17T05:15:09.501Z,0
2016-03-17T05:16:09.472Z,0
2016-03-17T05:17:09.460Z,0
2016-03-17T05:18:09.322Z,0
2016-03-17T05:19:09.372Z,0
2016-03-17T05:20:09.327Z,0
2016-03-17T05:21:09.314Z,0
2016-03-17T05:22:09.255Z,0
2016-03-17T05:23:09.226Z,0
2016-03-17T05:24:09.183Z,0
2016-03-17T05:25:09.263Z,0
2016-03-17T05:26:09.125Z,0
2016-03-17T05:27:09.080Z,0
2016-03-17T05:28:09.068Z,0
2016-03-17T05:29:09.024Z,0
2016-03-17T05:30:08.838Z,0
2016-03-17T05:31:08.951Z,0
2016-03-17T05:32:08.890Z,5
2016-03-17T05:33:08.925Z,5
2016-03-17T05:34:08.818Z,5
2016-03-17T05:35:08.649Z,5
2016-03-17T05:36:08.777Z,5
2016-03-17T05:37:08.717Z,5
2016-03-17T05:38:08.688Z,5
2016-03-17T05:39:08.644Z,5
2016-03-17T05:40:08.615Z,10
2016-03-17T05:41:08.587Z,10
2016-03-17T05:42:08.543Z,10
2016-03-17T05:43:08.530Z,10
2016-03-17T05:44:08.470Z,10
2016-03-17T05:45:08.442Z,15
2016-03-17T05:46:08.397Z,15
2016-03-17T05:47:08.369Z,15
2016-03-17T05:48:08.481Z,15
2016-03-17T05:49:08.295Z,20
2016-03-17T05:50:08.252Z,20
2016-03-17T05:51:08.222Z,20
2016-03-17T05:52:08.194Z,20
2016-03-17T05:53:07.994Z,25
2016-03-17T05:54:08.106Z,25
2016-03-17T05:55:08.078Z,25
2016-03-17T05:56:08.049Z,25
2016-03-17T05:57:08.021Z,30
2016-03-17T05:58:07.976Z,30
2016-03-17T05:59:07.932Z,30
2016-03-17T06:00:07.904Z,35
2016-03-17T06:01:07.860Z,35
2016-03-17T06:02:07.816Z,35
2016-03-17T06:03:07.552Z,40
2016-03-17T06:04:07.758Z,40
2016-03-17T06:05:07.730Z,40
2016-03-17T06:06:07.686Z,40
2016-03-17T06:07:07.657Z,45
2016-03-17T06:08:07.597Z,45
2016-03-17T06:09:07.568Z,45
2016-03-17T06:10:07.524Z,50
2016-03-17T06:11:07.496Z,50
2016-03-17T06:12:07.482Z,50
2016-03-17T06:13:07.439Z,55
2016-03-17T06:14:07.409Z,55
2016-03-17T06:15:07.351Z,55
2016-03-17T06:16:07.322Z,60
2016-03-17T06:17:07.278Z,60
2016-03-17T06:18:07.124Z,60
2016-03-17T06:19:07.220Z,65
2016-03-17T06:20:07.176Z,65
2016-03-17T06:21:07.148Z,65
2016-03-17T06:22:07.119Z,70
2016-03-17T06:23:07.075Z,70
2016-03-17T06:24:07.046Z,70
2016-03-17T06:25:06.986Z,75
2016-03-17T06:26:06.957Z,75
2016-03-17T06:27:06.944Z,75
2016-03-17T06:28:06.916Z,80
2016-03-17T06:29:06.871Z,80
2016-03-17T06:30:06.828Z,80
2016-03-17T06:31:06.783Z,85
2016-03-17T06:32:06.755Z,85
2016-03-17T06:33:06.586Z,85
2016-03-17T06:34:06.683Z,90
2016-03-17T06:35:06.654Z,90
2016-03-17T06:36:06.626Z,90
2016-03-17T06:37:11.163Z,90
2016-03-17T06:38:06.282Z,95
2016-03-17T06:39:06.488Z,95
2016-03-17T06:40:10.437Z,95
2016-03-17T06:41:06.846Z,100
2016-03-17T06:42:06.755Z,100
2016-03-17T06:43:06.383Z,100
2016-03-17T06:44:06.182Z,100
2016-03-17T06:45:06.294Z,105
2016-03-17T06:46:06.250Z,105
2016-03-17T06:47:06.221Z,105
2016-03-17T06:48:06.193Z,105
2016-03-17T06:49:06.180Z,110
2016-03-17T06:50:06.124Z,110
2016-03-17T06:51:05.938Z,110
2016-03-17T06:52:06.050Z,110
2016-03-17T06:53:05.882Z,110
2016-03-17T06:54:05.962Z,110
2016-03-17T06:55:05.965Z,110
2016-03-17T06:56:05.904Z,115
2016-03-17T06:57:05.860Z,115
2016-03-17T06:58:05.676Z,115
2016-03-17T06:59:05.787Z,120
2016-03-17T07:00:05.776Z,120
2016-03-17T07:01:05.731Z,120
2016-03-17T07:02:05.701Z,120
2016-03-17T07:03:05.658Z,125
2016-03-17T07:04:05.614Z,125
2016-03-17T07:05:05.632Z,125
2016-03-17T07:06:05.556Z,125
2016-03-17T07:07:05.575Z,130
2016-03-17T07:08:05.468Z,130
2016-03-17T07:09:05.440Z,130
2016-03-17T07:10:05.428Z,130
2016-03-17T07:11:05.383Z,130
2016-03-17T07:12:05.370Z,135
2016-03-17T07:13:05.311Z,135
2016-03-17T07:14:05.297Z,135
2016-03-17T07:15:05.237Z,135
2016-03-17T07:16:05.224Z,135
2016-03-17T07:17:05.180Z,135
2016-03-17T07:18:05.136Z,140
2016-03-17T07:19:05.108Z,140
2016-03-17T07:20:05.125Z,145
2016-03-17T07:21:05.035Z,140
2016-03-17T07:22:05.037Z,140
2016-03-17T07:23:04.805Z,145
2016-03-17T07:24:04.949Z,145
2016-03-17T07:25:04.905Z,145
2016-03-17T07:26:04.892Z,145
2016-03-17T07:27:04.833Z,145
2016-03-17T07:28:04.819Z,145
2016-03-17T07:29:04.760Z,145
2016-03-17T07:30:04.746Z,150
2016-03-17T07:31:04.702Z,150
2016-03-17T07:32:04.658Z,150
2016-03-17T07:33:04.615Z,150
2016-03-17T07:34:04.601Z,150
2016-03-17T07:35:04.603Z,150
2016-03-17T07:36:04.528Z,155
2016-03-17T07:37:04.468Z,155
2016-03-17T07:38:04.471Z,155
2016-03-17T07:39:04.427Z,155
2016-03-17T07:40:04.398Z,155
2016-03-17T07:41:04.353Z,155
2016-03-17T07:42:04.341Z,155
2016-03-17T07:43:04.281Z,155
2016-03-17T07:44:04.269Z,155
2016-03-17T07:45:04.209Z,155
2016-03-17T07:46:04.195Z,155
2016-03-17T07:47:04.149Z,155
2016-03-17T07:48:04.120Z,155
2016-03-17T07:49:04.092Z,160
2016-03-17T07:50:04.063Z,160
2016-03-17T07:51:04.019Z,160
2016-03-17T07:52:03.975Z,160
2016-03-17T07:53:03.946Z,160
2016-03-17T07:54:03.918Z,160
2016-03-17T07:55:03.904Z,160
2016-03-17T07:56:03.845Z,160
2016-03-17T07:57:03.816Z,160
2016-03-17T07:58:03.788Z,160
2016-03-17T07:59:03.760Z,160
2016-03-17T08:00:03.730Z,160
2016-03-17T08:01:03.702Z,160
2016-03-17T08:02:03.673Z,160
2016-03-17T08:03:03.473Z,160
2016-03-17T08:04:03.585Z,160
2016-03-17T08:05:03.557Z,160
2016-03-17T08:06:03.559Z,165
2016-03-17T08:07:03.504Z,165
2016-03-17T08:08:03.460Z,165
2016-03-17T08:09:03.416Z,165
2016-03-17T08:10:03.403Z,165
2016-03-17T08:11:03.390Z,165
2016-03-17T08:12:03.362Z,165
2016-03-17T08:13:03.287Z,165
2016-03-17T08:14:03.242Z,165
2016-03-17T08:15:03.229Z,165
2016-03-17T08:16:03.217Z,165
2016-03-17T08:17:03.172Z,165
2016-03-17T08:18:03.159Z,165
2016-03-17T08:19:03.114Z,165
2016-03-17T08:20:03.087Z,165
2016-03-17T08:21:03.042Z,165
2016-03-17T08:22:03.014Z,165
2016-03-17T08:23:02.969Z,165
2016-03-17T08:24:02.957Z,165
2016-03-17T08:25:02.912Z,165
2016-03-17T08:26:02.883Z,165
2016-03-17T08:27:02.840Z,165
2016-03-17T08:28:02.811Z,165
2016-03-17T08:29:02.783Z,165
2016-03-17T08:30:02.754Z,165
2016-03-17T08:31:02.726Z,165
2016-03-17T08:32:02.696Z,165
2016-03-17T08:33:02.699Z,165
2016-03-17T08:34:02.640Z,165
2016-03-17T08:35:02.596Z,165
2016-03-17T08:36:02.568Z,170
2016-03-17T08:37:02.539Z,170
2016-03-17T08:38:02.510Z,170
2016-03-17T08:39:02.326Z,170
2016-03-17T08:40:02.438Z,170
2016-03-17T08:41:02.409Z,170
2016-03-17T08:42:02.381Z,170
2016-03-17T08:43:02.211Z,170
2016-03-17T08:44:02.306Z,170
2016-03-17T08:45:02.264Z,170
2016-03-17T08:46:02.250Z,165
2016-03-17T08:47:02.237Z,165
2016-03-17T08:48:02.208Z,165
2016-03-17T08:49:02.289Z,165
2016-03-17T08:50:02.136Z,165
2016-03-17T08:51:02.092Z,165
2016-03-17T08:52:02.078Z,165
2016-03-17T08:53:02.035Z,165
2016-03-17T08:54:02.006Z,170
2016-03-17T08:55:01.978Z,170
2016-03-17T08:56:01.933Z,170
2016-03-17T08:57:01.921Z,170
2016-03-17T08:58:01.907Z,170
2016-03-17T08:59:01.863Z,170
2016-03-17T09:00:01.819Z,170
2016-03-17T09:01:01.791Z,170
2016-03-17T09:02:01.762Z,170
2016-03-17T09:03:01.718Z,170
2016-03-17T09:04:01.439Z,175
2016-03-17T09:05:01.677Z,170
2016-03-17T09:06:01.632Z,170
2016-03-17T09:07:01.609Z,170
2016-03-17T09:08:01.579Z,170
2016-03-17T09:09:01.537Z,170
2016-03-17T09:10:01.539Z,170
2016-03-17T09:11:01.495Z,170
2016-03-17T09:12:01.465Z,170
2016-03-17T09:13:01.422Z,170
2016-03-17T09:14:01.393Z,170
2016-03-17T09:15:01.365Z,170
2016-03-17T09:16:01.336Z,170
2016-03-17T09:17:01.308Z,170
2016-03-17T09:18:01.263Z,175
2016-03-17T09:19:01.297Z,175
2016-03-17T09:20:04.205Z,175
2016-03-17T09:21:01.177Z,175
2016-03-17T09:22:01.180Z,170
2016-03-17T09:23:06.213Z,170
2016-03-17T09:24:01.108Z,170
2016-03-17T09:25:01.047Z,175
2016-03-17T09:26:03.820Z,175
2016-03-17T09:27:00.994Z,175
2016-03-17T09:28:00.997Z,175
2016-03-17T09:29:00.937Z,175
2016-03-17T09:30:00.940Z,175
2016-03-17T09:31:00.864Z,175
2016-03-17T09:32:00.867Z,175
2016-03-17T09:33:00.808Z,170
2016-03-17T09:34:00.842Z,170
2016-03-17T09:35:00.781Z,170
2016-03-17T09:36:00.722Z,170
2016-03-17T09:37:00.569Z,170
2016-03-17T09:38:00.696Z,170
2016-03-17T09:39:00.652Z,170
2016-03-17T09:40:00.608Z,170
2016-03-17T09:41:00.611Z,175
2016-03-17T09:42:00.550Z,175
2016-03-17T09:43:00.522Z,175
2016-03-17T09:44:00.524Z,175
2016-03-17T09:45:00.449Z,170
2016-03-17T09:46:00.452Z,175
2016-03-17T09:47:00.391Z,175
2016-03-17T09:48:00.410Z,175
2016-03-17T09:49:00.366Z,175
2016-03-17T09:50:00.322Z,175
2016-03-17T09:51:00.293Z,175
2016-03-17T09:52:00.265Z,175
2016-03-17T09:53:00.252Z,175
2016-03-17T09:54:00.240Z,175
2016-03-17T09:55:00.211Z,180
2016-03-17T09:56:00.165Z,180
2016-03-17T09:57:00.106Z,180
2016-03-17T09:58:00.094Z,180
2016-03-17T09:59:00.065Z,180
2016-03-17T10:00:00.021Z,180
2016-03-17T10:01:00.008Z,180
2016-03-17T10:01:59.995Z,180
2016-03-17T10:02:59.951Z,180
2016-03-17T10:03:59.937Z,180
2016-03-17T10:04:59.894Z,180
2016-03-17T10:05:59.850Z,180
2016-03-17T10:06:59.836Z,180
2016-03-17T10:07:59.808Z,180
2016-03-17T10:08:59.780Z,175
2016-03-17T10:09:59.751Z,175
2016-03-17T10:10:59.722Z,175
2016-03-17T10:11:59.677Z,175
2016-03-17T10:12:59.666Z,175
2016-03-17T10:13:59.622Z,175
2016-03-17T10:14:59.607Z,170
2016-03-17T10:15:59.580Z,170
2016-03-17T10:16:59.551Z,170
2016-03-17T10:17:59.522Z,170
2016-03-17T10:18:59.524Z,170
2016-03-17T10:19:59.449Z,170
2016-03-17T10:20:59.421Z,170
2016-03-17T10:21:59.393Z,170
2016-03-17T10:22:59.363Z,165
2016-03-17T10:23:59.351Z,165
2016-03-17T10:24:59.322Z,165
2016-03-17T10:25:59.278Z,165
2016-03-17T10:26:59.249Z,170
2016-03-17T10:27:59.221Z,170
2016-03-17T10:28:59.052Z,165
2016-03-17T10:29:59.179Z,165
2016-03-17T10:30:59.151Z,165
2016-03-17T10:31:59.122Z,165
2016-03-17T10:32:59.079Z,165
2016-03-17T10:33:59.050Z,165
2016-03-17T10:34:59.020Z,165
2016-03-17T10:35:58.992Z,165
2016-03-17T10:36:58.980Z,165
2016-03-17T10:37:58.779Z,160
2016-03-17T10:38:58.923Z,160
2016-03-17T10:39:58.878Z,160
2016-03-17T10:40:58.866Z,160
2016-03-17T10:41:58.821Z,160
2016-03-17T10:42:58.808Z,160
2016-03-17T10:43:58.764Z,160
2016-03-17T10:44:58.752Z,160
2016-03-17T10:45:58.722Z,160
2016-03-17T10:46:58.710Z,160
2016-03-17T10:47:58.650Z,160
2016-03-17T10:48:58.653Z,160
2016-03-17T10:49:58.593Z,160
2016-03-17T10:50:58.564Z,160
2016-03-17T10:51:58.535Z,160
2016-03-17T10:52:58.507Z,160
2016-03-17T10:53:58.510Z,160
2016-03-17T10:54:58.466Z,160
2016-03-17T10:55:58.452Z,160
2016-03-17T10:56:58.409Z,160
2016-03-17T10:57:58.379Z,160
2016-03-17T10:58:58.352Z,160
2016-03-17T10:59:58.323Z,160
2016-03-17T11:00:58.295Z,155
2016-03-17T11:01:58.281Z,155
2016-03-17T11:02:58.253Z,155
2016-03-17T11:03:58.224Z,155
2016-03-17T11:04:58.195Z,155
2016-03-17T11:05:58.167Z,155
2016-03-17T11:06:58.139Z,155
2016-03-17T11:07:58.110Z,155
2016-03-17T11:08:58.081Z,155
2016-03-17T11:09:58.055Z,160
2016-03-17T11:10:58.012Z,155
2016-03-17T11:11:57.983Z,155
2016-03-17T11:12:57.829Z,155
2016-03-17T11:13:57.786Z,155
2016-03-17T11:14:57.913Z,155
2016-03-17T11:15:57.729Z,155
2016-03-17T11:16:57.840Z,155
2016-03-17T11:17:57.686Z,155
2016-03-17T11:18:57.814Z,155
2016-03-17T11:19:57.770Z,155
2016-03-17T11:20:57.741Z,155
2016-03-17T11:21:57.714Z,155
2016-03-17T11:22:57.684Z,155
2016-03-17T11:23:57.656Z,155
2016-03-17T11:24:57.627Z,155
2016-03-17T11:25:57.583Z,155
2016-03-17T11:26:57.601Z,155
2016-03-17T11:27:57.542Z,155
2016-03-17T11:28:57.513Z,155
2016-03-17T11:29:57.485Z,155
2016-03-17T11:30:57.457Z,155
2016-03-17T11:31:57.302Z,155
2016-03-17T11:32:57.398Z,150
2016-03-17T11:33:57.385Z,150
2016-03-17T11:34:57.373Z,155
2016-03-17T11:35:57.329Z,150
2016-03-17T11:36:57.301Z,150
2016-03-17T11:37:57.287Z,150
2016-03-17T11:38:57.243Z,150
2016-03-17T11:39:57.231Z,150
2016-03-17T11:40:57.202Z,150
2016-03-17T11:41:57.157Z,150
2016-03-17T11:42:57.145Z,150
2016-03-17T11:43:57.131Z,150
2016-03-17T11:44:57.072Z,150
2016-03-17T11:45:57.059Z,150
2016-03-17T11:46:57.031Z,150
2016-03-17T11:47:57.017Z,150
2016-03-17T11:48:56.958Z,150
2016-03-17T11:49:56.929Z,150
2016-03-17T11:50:56.916Z,150
2016-03-17T11:51:56.888Z,150
2016-03-17T11:52:56.891Z,145
2016-03-17T11:53:56.830Z,145
2016-03-17T11:54:56.802Z,145
2016-03-17T11:55:56.757Z,145
2016-03-17T11:56:56.776Z,145
2016-03-17T11:57:56.716Z,145
2016-03-17T11:58:56.703Z,145
2016-03-17T11:59:56.691Z,145
2016-03-17T12:00:56.651Z,145
2016-03-17T12:01:56.607Z,145
2016-03-17T12:02:56.593Z,145
2016-03-17T12:03:56.549Z,145
2016-03-17T12:04:56.552Z,145
2016-03-17T12:05:56.508Z,145
2016-03-17T12:06:56.495Z,145
2016-03-17T12:07:56.467Z,145
2016-03-17T12:08:56.423Z,145
2016-03-17T12:09:56.395Z,145
2016-03-17T12:10:56.397Z,145
2016-03-17T12:11:56.352Z,145
2016-03-17T12:12:56.292Z,145
2016-03-17T12:13:56.296Z,145
2016-03-17T12:14:56.283Z,145
2016-03-17T12:15:56.238Z,145
2016-03-17T12:16:56.194Z,145
2016-03-17T12:17:56.197Z,145
2016-03-17T12:18:56.168Z,145
2016-03-17T12:19:56.108Z,145
2016-03-17T12:20:56.095Z,145
2016-03-17T12:21:56.083Z,145
2016-03-17T12:22:55.882Z,145
2016-03-17T12:23:56.010Z,145
2016-03-17T12:24:55.997Z,140
2016-03-17T12:25:55.983Z,140
2016-03-17T12:26:55.940Z,140
2016-03-17T12:27:55.911Z,140
2016-03-17T12:28:55.882Z,140
2016-03-17T12:29:55.854Z,140
2016-03-17T12:30:55.826Z,140
2016-03-17T12:31:55.797Z,140
2016-03-17T12:32:55.768Z,140
2016-03-17T12:33:55.740Z,140
2016-03-17T12:34:55.742Z,140
2016-03-17T12:35:55.682Z,140
2016-03-17T12:36:55.654Z,140
2016-03-17T12:37:55.641Z,140
2016-03-17T12:38:55.597Z,140
2016-03-17T12:39:55.615Z,140
2016-03-17T12:40:55.556Z,140
2016-03-17T12:41:55.542Z,140
2016-03-17T12:42:55.515Z,140
2016-03-17T12:43:55.463Z,140
2016-03-17T12:44:55.438Z,140
2016-03-17T12:45:55.397Z,140
2016-03-17T12:46:55.356Z,140
2016-03-17T12:47:55.330Z,140
2016-03-17T12:48:55.295Z,140
2016-03-17T12:49:55.246Z,140
2016-03-17T12:50:55.214Z,140
2016-03-17T12:51:55.212Z,140
2016-03-17T12:52:55.147Z,140
2016-03-17T12:53:55.132Z,140
2016-03-17T12:54:55.101Z,140
2016-03-17T12:55:55.071Z,140
2016-03-17T12:56:55.058Z,140
2016-03-17T12:57:54.995Z,140
2016-03-17T12:58:54.998Z,140
2016-03-17T12:59:54.953Z,140
2016-03-17T13:00:54.939Z,140
2016-03-17T13:01:54.894Z,140
2016-03-17T13:02:54.864Z,140
2016-03-17T13:03:54.851Z,140
2016-03-17T13:04:54.838Z,140
2016-03-17T13:05:54.779Z,135
2016-03-17T13:06:54.736Z,135
2016-03-17T13:07:54.759Z,135
2016-03-17T13:08:54.715Z,135
2016-03-17T13:09:54.702Z,135
2016-03-17T13:10:54.658Z,135
2016-03-17T13:11:54.645Z,135
2016-03-17T13:12:54.617Z,135
2016-03-17T13:13:54.589Z,135
2016-03-17T13:14:54.575Z,135
2016-03-17T13:15:54.531Z,135
2016-03-17T13:16:54.518Z,135
2016-03-17T13:17:54.474Z,135
2016-03-17T13:18:54.445Z,135
2016-03-17T13:19:54.432Z,135
2016-03-17T13:20:54.389Z,135
2016-03-17T13:21:54.375Z,135
2016-03-17T13:22:54.331Z,135
2016-03-17T13:23:54.319Z,135
2016-03-17T13:24:54.290Z,135
2016-03-17T13:25:54.261Z,135
2016-03-17T13:26:54.250Z,135
2016-03-17T13:27:54.221Z,135
2016-03-17T13:28:54.177Z,135
2016-03-17T13:29:54.179Z,135
2016-03-17T13:30:54.119Z,135
2016-03-17T13:31:54.122Z,135
2016-03-17T13:32:54.062Z,135
2016-03-17T13:33:54.065Z,135
2016-03-17T13:34:54.115Z,135
2016-03-17T13:35:54.007Z,135
2016-03-17T13:36:53.963Z,135
2016-03-17T13:37:53.935Z,135
2016-03-17T13:38:53.922Z,135
2016-03-17T13:39:53.879Z,135
2016-03-17T13:40:53.865Z,135
2016-03-17T13:41:53.852Z,135
2016-03-17T13:42:53.823Z,135
2016-03-17T13:43:53.795Z,135
2016-03-17T13:44:53.594Z,135
2016-03-17T13:45:53.738Z,135
2016-03-17T13:46:53.709Z,135
2016-03-17T13:47:53.681Z,135
2016-03-17T13:48:53.667Z,135
2016-03-17T13:49:53.420Z,135
2016-03-17T13:50:53.594Z,135
2016-03-17T13:51:53.566Z,135
2016-03-17T13:52:53.553Z,135
2016-03-17T13:53:53.525Z,135
2016-03-17T13:54:53.512Z,135
2016-03-17T13:55:53.483Z,135
2016-03-17T13:56:53.455Z,135
2016-03-17T13:57:53.427Z,135
2016-03-17T13:58:53.382Z,135
2016-03-17T13:59:53.369Z,135
2016-03-17T14:00:53.341Z,130
2016-03-17T14:01:53.327Z,130
2016-03-17T14:02:53.299Z,130
2016-03-17T14:03:53.520Z,130
2016-03-17T14:04:53.320Z,130
2016-03-17T14:05:53.198Z,130
2016-03-17T14:06:53.201Z,130
2016-03-17T14:07:53.157Z,130
2016-03-17T14:08:53.143Z,130
2016-03-17T14:09:53.099Z,130
2016-03-17T14:10:53.101Z,130